Airfield :
LOGIN :

Register | Disclaimer

   EN    FR    IT 

 










Legend :    VFR   Marginal VFR   IFR   Intensive IFR   Very Intensive IFR
Visi :
Ceiling :
>= 8 km
>= 3000ft
5 to 8 km
1000 to 3000 ft
1500m to 5 km
500 to 1000 ft
800 to 1500m
200 to 500 ft
< 800m
< 200 ft
Symbols :   Thunderstorms  Fog  Heavy snow  Heavy precipitations  Wind > 20 kt
SIGMETs :     Misc.  Thunderstorms  Icing  Turbulence  Mountain Waves  Volcanic Ashes






- Airport Elevation : 1400 ft


LSME - Luzern Emmen

CURRENT METAR :
  • 250220Z AUTO 20002KT 9999NDV -RA BKN063 OVC093 12/12 Q1015 RMK

EXPIRED METARs :
  • 250150Z AUTO VRB02KT 9999NDV -RA SCT056 OVC091 12/12 Q1015 RMK
  • 250120Z AUTO 27003KT 210V300 9999NDV -RA OVC058 12/12 Q1015 RMK
  • 250050Z AUTO 25002KT 9999NDV -RA OVC061 12/12 Q1015 RMK
  • 250020Z AUTO 24003KT 190V280 9999NDV -RA OVC059 13/13 Q1015 RMK
  • 242350Z AUTO 19003KT 120V230 9999NDV -RA BKN055 OVC065 13/13 Q1014 RMK

Expired Forecast.



MET'MAP, your aeronautical weather chart ! - Copyright ORBIFLY December 2007 - Disclaimer

ORBIFLY MET'MAP TEAM :

Programming & Development : Alexandra Zaïnal
Original concept : Baudouin d'Aumeries
Technical & hardware support : Manuel Goepfert
Assistance : Marc-Olivier Méhu

Contact : metmap@orbifly.com




SOURCES & CREDITS :

   NOAA